createdAt,value
2024-02-22T00:00:53.868Z,22.80
2024-02-22T00:01:53.891Z,22.81
2024-02-22T00:02:53.853Z,22.80
2024-02-22T00:03:53.851Z,22.81
2024-02-22T00:04:54.077Z,22.81
2024-02-22T00:05:53.905Z,22.80
2024-02-22T00:06:53.975Z,22.81
2024-02-22T00:07:53.913Z,22.81
2024-02-22T00:08:53.939Z,22.81
2024-02-22T00:09:53.858Z,22.81
2024-02-22T00:10:54.020Z,22.81
2024-02-22T00:11:53.947Z,22.80
2024-02-22T00:12:53.860Z,22.80
2024-02-22T00:13:53.921Z,22.81
2024-02-22T00:14:53.877Z,22.81
2024-02-22T00:15:53.892Z,22.81
2024-02-22T00:16:54.043Z,22.81
2024-02-22T00:17:53.986Z,22.81
2024-02-22T00:18:53.884Z,22.81
2024-02-22T00:19:54.525Z,22.81
2024-02-22T00:20:53.916Z,22.81
2024-02-22T00:21:53.903Z,22.82
2024-02-22T00:22:53.962Z,22.81
2024-02-22T00:23:53.988Z,22.81
2024-02-22T00:24:54.055Z,22.82
2024-02-22T00:25:54.155Z,22.82
2024-02-22T00:26:54.166Z,22.82
2024-02-22T00:27:54.210Z,22.81
2024-02-22T00:28:54.358Z,22.82
2024-02-22T00:29:54.318Z,22.82
2024-02-22T00:30:54.413Z,22.81
2024-02-22T00:31:54.484Z,22.82
2024-02-22T00:32:54.507Z,22.82
2024-02-22T00:33:54.586Z,22.82
2024-02-22T00:34:54.658Z,22.81
2024-02-22T00:35:54.649Z,22.82
2024-02-22T00:36:54.709Z,22.82
2024-02-22T00:37:54.822Z,22.82
2024-02-22T00:38:54.836Z,22.82
2024-02-22T00:39:54.903Z,22.81
2024-02-22T00:40:55.033Z,22.80
2024-02-22T00:41:55.017Z,22.81
2024-02-22T00:42:55.084Z,22.82
2024-02-22T00:43:55.215Z,22.82
2024-02-22T00:44:55.175Z,22.81
2024-02-22T00:45:55.252Z,22.81
2024-02-22T00:46:55.504Z,22.82
2024-02-22T00:47:55.436Z,22.82
2024-02-22T00:48:55.444Z,22.81
2024-02-22T00:49:55.533Z,22.82
2024-02-22T00:50:55.606Z,22.81
2024-02-22T00:51:55.599Z,22.82
2024-02-22T00:52:55.737Z,22.81
2024-02-22T00:53:55.737Z,22.81
2024-02-22T00:54:55.808Z,22.80
2024-02-22T00:55:55.889Z,22.80
2024-02-22T00:56:55.909Z,22.80
2024-02-22T00:57:56.002Z,22.81
2024-02-22T00:58:56.074Z,22.81
2024-02-22T00:59:56.123Z,22.81
2024-02-22T01:00:56.233Z,22.81
2024-02-22T01:01:56.266Z,22.80
2024-02-22T01:02:56.310Z,22.81
2024-02-22T01:03:56.445Z,22.81
2024-02-22T01:04:56.457Z,22.80
2024-02-22T01:05:56.551Z,22.80
2024-02-22T01:06:56.585Z,22.80
2024-02-22T01:07:56.737Z,22.81
2024-02-22T01:08:56.713Z,22.81
2024-02-22T01:09:56.772Z,22.81
2024-02-22T01:10:56.877Z,22.79
2024-02-22T01:11:56.958Z,22.80
2024-02-22T01:12:56.959Z,22.80
2024-02-22T01:13:57.044Z,22.80
2024-02-22T01:14:57.066Z,22.80
2024-02-22T01:15:57.201Z,22.80
2024-02-22T01:16:57.267Z,22.81
2024-02-22T01:17:57.268Z,22.81
2024-02-22T01:18:57.382Z,22.80
2024-02-22T01:19:57.553Z,22.81
2024-02-22T01:20:57.482Z,22.80
2024-02-22T01:21:57.552Z,22.80
2024-02-22T01:22:57.653Z,22.79
2024-02-22T01:23:57.666Z,22.79
2024-02-22T01:24:57.714Z,22.79
2024-02-22T01:25:57.860Z,22.79
2024-02-22T01:26:57.850Z,22.79
2024-02-22T01:27:57.909Z,22.79
2024-02-22T01:28:58.060Z,22.79
2024-02-22T01:29:58.063Z,22.80
2024-02-22T01:30:58.146Z,22.79
2024-02-22T01:31:58.228Z,22.79
2024-02-22T01:32:58.330Z,22.79
2024-02-22T01:33:58.356Z,22.78
2024-02-22T01:34:58.404Z,22.79
2024-02-22T01:35:58.450Z,22.80
2024-02-22T01:36:58.558Z,22.80
2024-02-22T01:37:58.613Z,22.80
2024-02-22T01:38:58.671Z,22.79
2024-02-22T01:39:58.724Z,22.79
2024-02-22T01:40:59.169Z,22.79
2024-02-22T01:41:58.862Z,22.79
2024-02-22T01:42:58.916Z,22.79
2024-02-22T01:43:59.061Z,22.79
2024-02-22T01:44:59.044Z,22.79
2024-02-22T01:45:59.112Z,22.79
2024-02-22T01:46:59.219Z,22.79
2024-02-22T01:47:59.304Z,22.79
2024-02-22T01:48:59.372Z,22.80
2024-02-22T01:49:59.428Z,22.80
2024-02-22T01:50:59.446Z,22.80
2024-02-22T01:51:59.602Z,22.80
2024-02-22T01:52:59.631Z,22.79
2024-02-22T01:53:59.670Z,22.79
2024-02-22T01:54:59.776Z,22.79
2024-02-22T01:55:59.999Z,22.79
2024-02-22T01:56:59.851Z,22.80
2024-02-22T01:57:59.950Z,22.80
2024-02-22T01:59:00.052Z,22.80
2024-02-22T02:00:00.058Z,22.80
2024-02-22T02:01:00.153Z,22.80
2024-02-22T02:02:00.323Z,22.80
2024-02-22T02:03:00.242Z,22.80
2024-02-22T02:04:00.367Z,22.80
2024-02-22T02:05:00.441Z,22.79
2024-02-22T02:06:00.469Z,22.80
2024-02-22T02:07:00.523Z,22.80
2024-02-22T02:08:00.597Z,22.80
2024-02-22T02:09:00.626Z,22.80
2024-02-22T02:10:00.695Z,22.80
2024-02-22T02:11:00.887Z,22.80
2024-02-22T02:12:00.893Z,22.80
2024-02-22T02:13:00.861Z,22.80
2024-02-22T02:14:00.995Z,22.80
2024-02-22T02:15:01.003Z,22.80
2024-02-22T02:16:01.076Z,22.80
2024-02-22T02:17:01.156Z,22.80
2024-02-22T02:18:01.216Z,22.79
2024-02-22T02:19:01.313Z,22.80
2024-02-22T02:20:01.306Z,22.80
2024-02-22T02:21:01.385Z,22.80
2024-02-22T02:22:01.419Z,22.79
2024-02-22T02:23:01.552Z,22.79
2024-02-22T02:24:01.550Z,22.80
2024-02-22T02:25:01.636Z,22.80
2024-02-22T02:26:01.748Z,22.79
2024-02-22T02:27:01.733Z,22.79
2024-02-22T02:28:01.819Z,22.79
2024-02-22T02:29:01.943Z,22.79
2024-02-22T02:30:01.913Z,22.79
2024-02-22T02:31:01.985Z,22.79
2024-02-22T02:32:02.121Z,22.79
2024-02-22T02:33:02.163Z,22.79
2024-02-22T02:34:02.256Z,22.80
2024-02-22T02:35:02.322Z,22.79
2024-02-22T02:36:02.321Z,22.79
2024-02-22T02:37:02.370Z,22.79
2024-02-22T02:38:02.472Z,22.79
2024-02-22T02:39:02.493Z,22.79
2024-02-22T02:40:02.589Z,22.78
2024-02-22T02:41:02.694Z,22.79
2024-02-22T02:42:02.728Z,22.78
2024-02-22T02:43:02.742Z,22.78
2024-02-22T02:44:02.932Z,22.79
2024-02-22T02:45:03.018Z,22.79
2024-02-22T02:46:03.026Z,22.79
2024-02-22T02:47:03.127Z,22.79
2024-02-22T02:48:03.227Z,22.79
2024-02-22T02:49:03.260Z,22.79
2024-02-22T02:50:03.279Z,22.79
2024-02-22T02:51:03.274Z,22.78
2024-02-22T02:52:03.346Z,22.78
2024-02-22T02:53:03.505Z,22.79
2024-02-22T02:54:03.472Z,22.78
2024-02-22T02:55:03.522Z,22.79
2024-02-22T02:56:03.613Z,22.78
2024-02-22T02:57:03.657Z,22.79
2024-02-22T02:58:03.719Z,22.79
2024-02-22T02:59:03.815Z,22.78
2024-02-22T03:00:03.852Z,22.78
2024-02-22T03:01:03.943Z,22.77
2024-02-22T03:02:04.021Z,22.77
2024-02-22T03:03:04.116Z,22.78
2024-02-22T03:04:04.125Z,22.78
2024-02-22T03:05:04.221Z,22.77
2024-02-22T03:06:04.400Z,22.78
2024-02-22T03:07:04.293Z,22.78
2024-02-22T03:08:04.368Z,22.78
2024-02-22T03:09:04.417Z,22.77
2024-02-22T03:10:04.477Z,22.78
2024-02-22T03:11:04.765Z,22.77
2024-02-22T03:12:04.706Z,22.77
2024-02-22T03:13:04.676Z,22.78
2024-02-22T03:14:04.870Z,22.78
2024-02-22T03:15:04.810Z,22.78
2024-02-22T03:16:04.871Z,22.78
2024-02-22T03:17:05.005Z,22.77
2024-02-22T03:18:05.081Z,22.77
2024-02-22T03:19:05.101Z,22.77
2024-02-22T03:20:05.184Z,22.77
2024-02-22T03:21:05.202Z,22.78
2024-02-22T03:22:05.261Z,22.77
2024-02-22T03:23:05.399Z,22.77
2024-02-22T03:24:05.391Z,22.77
2024-02-22T03:25:05.467Z,22.78
2024-02-22T03:26:05.542Z,22.77
2024-02-22T03:27:05.589Z,22.78
2024-02-22T03:28:05.650Z,22.77
2024-02-22T03:29:05.722Z,22.77
2024-02-22T03:30:05.776Z,22.77
2024-02-22T03:31:05.861Z,22.76
2024-02-22T03:32:05.910Z,22.77
2024-02-22T03:33:06.013Z,22.77
2024-02-22T03:34:06.081Z,22.76
2024-02-22T03:35:06.275Z,22.77
2024-02-22T03:36:06.150Z,22.76
2024-02-22T03:37:06.245Z,22.76
2024-02-22T03:38:06.313Z,22.76
2024-02-22T03:39:06.412Z,22.76
2024-02-22T03:40:06.441Z,22.76
2024-02-22T03:41:06.523Z,22.76
2024-02-22T03:42:06.566Z,22.77
2024-02-22T03:43:06.644Z,22.76
2024-02-22T03:44:06.730Z,22.77
2024-02-22T03:45:06.756Z,22.76
2024-02-22T03:46:06.830Z,22.75
2024-02-22T03:47:06.942Z,22.75
2024-02-22T03:48:07.078Z,22.75
2024-02-22T03:49:07.069Z,22.76
2024-02-22T03:50:07.229Z,22.76
2024-02-22T03:51:07.169Z,22.76
2024-02-22T03:52:07.246Z,22.76
2024-02-22T03:53:07.349Z,22.76
2024-02-22T03:54:07.359Z,22.76
2024-02-22T03:55:07.459Z,22.76
2024-02-22T03:56:07.548Z,22.76
2024-02-22T03:57:07.577Z,22.76
2024-02-22T03:58:08.096Z,22.75
2024-02-22T03:59:07.833Z,22.76
2024-02-22T04:00:07.906Z,22.76
2024-02-22T04:01:07.933Z,22.76
2024-02-22T04:02:07.927Z,22.76
2024-02-22T04:03:07.970Z,22.76
2024-02-22T04:04:08.084Z,22.76
2024-02-22T04:05:08.143Z,22.76
2024-02-22T04:06:08.195Z,22.76
2024-02-22T04:07:08.221Z,22.76
2024-02-22T04:08:08.297Z,22.76
2024-02-22T04:09:08.355Z,22.76
2024-02-22T04:10:08.398Z,22.76
2024-02-22T04:11:08.561Z,22.76
2024-02-22T04:12:08.591Z,22.76
2024-02-22T04:13:08.601Z,22.76
2024-02-22T04:14:08.759Z,22.75
2024-02-22T04:15:08.724Z,22.76
2024-02-22T04:16:08.773Z,22.76
2024-02-22T04:17:08.909Z,22.76
2024-02-22T04:18:09.011Z,22.75
2024-02-22T04:19:19.937Z,22.74
2024-02-22T04:20:16.290Z,22.75
2024-02-22T04:21:16.198Z,22.75
2024-02-22T04:22:16.194Z,22.76
2024-02-22T04:23:16.274Z,22.76
2024-02-22T04:24:16.197Z,22.76
2024-02-22T04:25:16.238Z,22.77
2024-02-22T04:26:16.270Z,22.77
2024-02-22T04:27:16.202Z,22.77
2024-02-22T04:28:16.209Z,22.77
2024-02-22T04:29:16.368Z,22.78
2024-02-22T04:30:16.210Z,22.78
2024-02-22T04:31:16.208Z,22.79
2024-02-22T04:32:16.262Z,22.80
2024-02-22T04:33:16.318Z,22.80
2024-02-22T04:34:16.270Z,22.80
2024-02-22T04:35:16.375Z,22.81
2024-02-22T04:36:16.233Z,22.81
2024-02-22T04:37:16.232Z,22.81
2024-02-22T04:38:16.349Z,22.82
2024-02-22T04:39:16.222Z,22.82
2024-02-22T04:40:16.242Z,22.83
2024-02-22T04:41:16.267Z,22.83
2024-02-22T04:42:16.226Z,22.82
2024-02-22T04:43:16.229Z,22.84
2024-02-22T04:44:16.294Z,22.83
2024-02-22T04:45:16.298Z,22.84
2024-02-22T04:46:16.352Z,22.84
2024-02-22T04:47:16.475Z,22.84
2024-02-22T04:48:16.551Z,22.84
2024-02-22T04:49:16.582Z,22.84
2024-02-22T04:50:16.662Z,22.84
2024-02-22T04:51:16.659Z,22.85
2024-02-22T04:52:16.657Z,22.86
2024-02-22T04:53:16.842Z,22.86
2024-02-22T04:54:16.782Z,22.86
2024-02-22T04:55:16.830Z,22.87
2024-02-22T04:56:16.956Z,22.86
2024-02-22T04:57:16.954Z,22.87
2024-02-22T04:58:16.989Z,22.87
2024-02-22T04:59:17.076Z,22.87
2024-02-22T05:00:17.112Z,22.87
2024-02-22T05:01:17.190Z,22.87
2024-02-22T05:02:17.259Z,22.87
2024-02-22T05:03:17.319Z,22.87
2024-02-22T05:04:17.370Z,22.88
2024-02-22T05:05:17.409Z,22.89
2024-02-22T05:06:17.471Z,22.88
2024-02-22T05:07:17.521Z,22.88
2024-02-22T05:08:17.668Z,22.88
2024-02-22T05:09:17.617Z,22.89
2024-02-22T05:10:17.662Z,22.88
2024-02-22T05:11:17.773Z,22.89
2024-02-22T05:12:17.756Z,22.89
2024-02-22T05:13:17.801Z,22.89
2024-02-22T05:14:17.966Z,22.90
2024-02-22T05:15:17.922Z,22.90
2024-02-22T05:16:17.974Z,22.90
2024-02-22T05:17:18.019Z,22.91
2024-02-22T05:18:18.102Z,22.90
2024-02-22T05:19:18.138Z,22.90
2024-02-22T05:20:18.232Z,22.90
2024-02-22T05:21:18.208Z,22.91
2024-02-22T05:22:18.242Z,22.91
2024-02-22T05:23:18.317Z,22.91
2024-02-22T05:24:18.338Z,22.92
2024-02-22T05:25:18.411Z,22.92
2024-02-22T05:26:18.517Z,22.92
2024-02-22T05:27:18.510Z,22.92
2024-02-22T05:28:18.542Z,22.92
2024-02-22T05:29:18.645Z,22.93
2024-02-22T05:30:18.637Z,22.93
2024-02-22T05:31:18.674Z,22.93
2024-02-22T05:32:18.854Z,22.94
2024-02-22T05:33:18.871Z,22.94
2024-02-22T05:34:18.876Z,22.93
2024-02-22T05:35:18.935Z,22.94
2024-02-22T05:36:18.873Z,22.94
2024-02-22T05:37:18.930Z,22.93
2024-02-22T05:38:19.040Z,22.93
2024-02-22T05:39:19.018Z,22.93
2024-02-22T05:40:19.055Z,22.93
2024-02-22T05:41:19.306Z,22.93
2024-02-22T05:42:19.153Z,22.92
2024-02-22T05:43:19.196Z,22.92
2024-02-22T05:44:19.364Z,22.92
2024-02-22T05:45:19.289Z,22.92
2024-02-22T05:46:19.356Z,22.91
2024-02-22T05:47:19.435Z,22.91
2024-02-22T05:48:19.573Z,22.92
2024-02-22T05:49:19.545Z,22.92
2024-02-22T05:50:19.652Z,22.91
2024-02-22T05:51:19.596Z,22.91
2024-02-22T05:52:19.846Z,22.90
2024-02-22T05:53:19.746Z,22.91
2024-02-22T05:54:19.736Z,22.91
2024-02-22T05:55:19.787Z,22.91
2024-02-22T05:56:19.867Z,22.91
2024-02-22T05:57:19.882Z,22.92
2024-02-22T05:58:19.948Z,22.92
2024-02-22T05:59:20.046Z,22.92
2024-02-22T06:00:20.028Z,22.91
2024-02-22T06:01:20.176Z,22.92
2024-02-22T06:02:20.166Z,22.92
2024-02-22T06:03:20.169Z,22.92
2024-02-22T06:04:20.252Z,22.92
2024-02-22T06:05:20.342Z,22.92
2024-02-22T06:06:20.342Z,22.92
2024-02-22T06:07:20.408Z,22.92
2024-02-22T06:08:20.470Z,22.92
2024-02-22T06:09:20.438Z,22.92
2024-02-22T06:10:20.494Z,22.92
2024-02-22T06:11:20.714Z,22.93
2024-02-22T06:12:20.641Z,22.93
2024-02-22T06:13:20.627Z,22.93
2024-02-22T06:14:20.726Z,22.93
2024-02-22T06:15:20.729Z,22.93
2024-02-22T06:16:20.798Z,22.94
2024-02-22T06:17:20.913Z,22.94
2024-02-22T06:18:20.985Z,22.94
2024-02-22T06:19:20.999Z,22.95
2024-02-22T06:20:21.084Z,22.94
2024-02-22T06:21:21.014Z,22.94
2024-02-22T06:22:21.364Z,22.95
2024-02-22T06:23:21.180Z,22.95
2024-02-22T06:24:21.120Z,22.95
2024-02-22T06:25:21.265Z,22.95
2024-02-22T06:26:21.331Z,22.95
2024-02-22T06:27:21.265Z,22.95
2024-02-22T06:28:21.318Z,22.95
2024-02-22T06:29:21.470Z,22.96
2024-02-22T06:30:21.409Z,22.96
2024-02-22T06:31:21.904Z,22.96
2024-02-22T06:32:21.523Z,22.96
2024-02-22T06:33:21.616Z,22.97
2024-02-22T06:34:21.643Z,22.96
2024-02-22T06:35:21.775Z,22.95
2024-02-22T06:36:21.794Z,22.94
2024-02-22T06:37:23.069Z,22.96
2024-02-22T06:38:21.804Z,22.99
2024-02-22T06:39:21.764Z,23.02
2024-02-22T06:40:21.750Z,23.05
2024-02-22T06:41:21.853Z,23.09
2024-02-22T06:42:21.893Z,23.14
2024-02-22T06:43:21.752Z,23.19
2024-02-22T06:44:21.894Z,23.22
2024-02-22T06:45:21.753Z,23.27
2024-02-22T06:46:21.796Z,23.30
2024-02-22T06:47:21.759Z,23.32
2024-02-22T06:48:21.900Z,23.35
2024-02-22T06:49:21.815Z,23.40
2024-02-22T06:50:21.877Z,23.44
2024-02-22T06:51:21.770Z,23.47
2024-02-22T06:52:21.851Z,23.48
2024-02-22T06:53:21.795Z,23.53
2024-02-22T06:54:21.773Z,23.56
2024-02-22T06:55:21.770Z,23.59
2024-02-22T06:56:21.835Z,23.61
2024-02-22T06:57:21.765Z,23.63
2024-02-22T06:58:21.773Z,23.66
2024-02-22T06:59:22.080Z,23.68
2024-02-22T07:00:21.838Z,23.69
2024-02-22T07:01:21.837Z,23.70
2024-02-22T07:02:21.855Z,23.73
2024-02-22T07:03:21.841Z,23.75
2024-02-22T07:04:21.931Z,23.75
2024-02-22T07:05:21.870Z,23.77
2024-02-22T07:06:21.903Z,23.79
2024-02-22T07:07:21.805Z,23.78
2024-02-22T07:08:21.871Z,23.80
2024-02-22T07:09:21.801Z,23.81
2024-02-22T07:10:21.885Z,23.81
2024-02-22T07:11:22.053Z,23.82
2024-02-22T07:12:21.831Z,23.82
2024-02-22T07:13:22.016Z,23.83
2024-02-22T07:14:21.860Z,23.84
2024-02-22T07:15:21.827Z,23.84
2024-02-22T07:16:21.849Z,23.85
2024-02-22T07:17:23.349Z,23.86
2024-02-22T07:18:21.940Z,23.87
2024-02-22T07:19:21.933Z,23.87
2024-02-22T07:20:21.980Z,23.88
2024-02-22T07:21:22.040Z,23.88
2024-02-22T07:22:22.875Z,23.89
2024-02-22T07:23:22.182Z,23.91
2024-02-22T07:24:22.138Z,23.91
2024-02-22T07:25:22.361Z,23.92
2024-02-22T07:26:22.256Z,23.93
2024-02-22T07:27:22.306Z,23.94
2024-02-22T07:28:22.339Z,23.94
2024-02-22T07:29:22.444Z,23.94
2024-02-22T07:30:22.420Z,23.96
2024-02-22T07:31:22.484Z,23.95
2024-02-22T07:32:22.668Z,23.97
2024-02-22T07:33:22.705Z,23.97
2024-02-22T07:34:22.763Z,23.99
2024-02-22T07:35:22.706Z,24.01
2024-02-22T07:36:22.716Z,24.01
2024-02-22T07:37:22.771Z,24.01
2024-02-22T07:38:22.840Z,24.02
2024-02-22T07:39:22.837Z,24.05
2024-02-22T07:40:22.843Z,24.07
2024-02-22T07:41:22.889Z,24.07
2024-02-22T07:42:23.402Z,24.09
2024-02-22T07:43:22.966Z,24.10
2024-02-22T07:44:24.945Z,24.10
2024-02-22T07:45:23.030Z,24.09
2024-02-22T07:46:23.076Z,24.08
2024-02-22T07:47:23.500Z,24.05
2024-02-22T07:48:23.283Z,24.00
2024-02-22T07:49:23.285Z,23.95
2024-02-22T07:50:23.345Z,23.91
2024-02-22T07:51:23.377Z,23.87
2024-02-22T07:52:23.907Z,23.83
2024-02-22T07:53:23.521Z,23.79
2024-02-22T07:54:23.549Z,23.76
2024-02-22T07:55:23.604Z,23.72
2024-02-22T07:56:23.704Z,23.69
2024-02-22T07:57:23.696Z,23.66
2024-02-22T07:58:23.695Z,23.63
2024-02-22T07:59:23.795Z,23.61
2024-02-22T08:00:23.777Z,23.58
2024-02-22T08:01:23.788Z,23.56
2024-02-22T08:02:23.785Z,23.53
2024-02-22T08:03:23.735Z,23.52
2024-02-22T08:04:23.805Z,23.51
2024-02-22T08:05:23.926Z,23.48
2024-02-22T08:06:23.812Z,23.46
2024-02-22T08:07:23.782Z,23.45
2024-02-22T08:08:23.837Z,23.45
2024-02-22T08:09:23.807Z,23.43
2024-02-22T08:10:23.835Z,23.43
2024-02-22T08:11:23.939Z,23.43
2024-02-22T08:12:24.129Z,23.41
2024-02-22T08:13:23.890Z,23.40
2024-02-22T08:14:23.928Z,23.41
2024-02-22T08:15:23.932Z,23.39
2024-02-22T08:16:24.011Z,23.39
2024-02-22T08:17:24.008Z,23.39
2024-02-22T08:18:24.104Z,23.38
2024-02-22T08:19:24.064Z,23.38
2024-02-22T08:20:24.296Z,23.37
2024-02-22T08:21:24.162Z,23.38
2024-02-22T08:22:24.416Z,23.37
2024-02-22T08:23:24.153Z,23.37
2024-02-22T08:24:24.150Z,23.36
2024-02-22T08:25:25.907Z,23.37
2024-02-22T08:26:24.438Z,23.36
2024-02-22T08:27:24.412Z,23.37
2024-02-22T08:28:24.431Z,23.37
2024-02-22T08:29:24.203Z,23.38
2024-02-22T08:30:24.197Z,23.37
2024-02-22T08:31:24.173Z,23.37
2024-02-22T08:32:24.491Z,23.37
2024-02-22T08:33:24.297Z,23.35
2024-02-22T08:34:24.303Z,23.35
2024-02-22T08:35:24.304Z,23.36
2024-02-22T08:36:24.182Z,23.39
2024-02-22T08:37:24.192Z,23.44
2024-02-22T08:38:24.506Z,23.48
2024-02-22T08:39:24.269Z,23.53
2024-02-22T08:40:34.762Z,23.58
2024-02-22T08:41:25.239Z,23.60
2024-02-22T08:42:24.194Z,23.64
2024-02-22T08:43:24.413Z,23.68
2024-02-22T08:44:24.268Z,23.71
2024-02-22T08:45:24.228Z,23.74
2024-02-22T08:46:24.744Z,23.74
2024-02-22T08:47:32.551Z,23.73
2024-02-22T08:48:32.576Z,23.76
2024-02-22T08:49:32.469Z,23.78
2024-02-22T08:50:32.419Z,23.81
2024-02-22T08:51:32.335Z,23.82
2024-02-22T08:52:32.416Z,23.83
2024-02-22T08:53:32.390Z,23.85
2024-02-22T08:54:32.342Z,23.86
2024-02-22T08:55:32.446Z,23.87
2024-02-22T08:56:32.447Z,23.87
2024-02-22T08:57:39.337Z,23.89
2024-02-22T08:58:33.482Z,23.91
2024-02-22T08:59:32.454Z,23.92
2024-02-22T09:00:32.422Z,23.93
2024-02-22T09:01:32.395Z,23.94
2024-02-22T09:02:32.337Z,23.94
2024-02-22T09:03:32.459Z,23.96
2024-02-22T09:04:32.438Z,23.97
2024-02-22T09:05:32.418Z,23.99
2024-02-22T09:06:32.479Z,24.01
2024-02-22T09:07:32.448Z,24.03
2024-02-22T09:08:32.400Z,24.05
2024-02-22T09:09:32.346Z,24.11
2024-02-22T09:10:32.348Z,24.16
2024-02-22T09:11:32.454Z,24.23
2024-02-22T09:12:32.476Z,24.31
2024-02-22T09:13:32.548Z,24.37
2024-02-22T09:14:32.444Z,24.43
2024-02-22T09:15:32.462Z,24.56
2024-02-22T09:16:32.551Z,24.73
2024-02-22T09:17:32.538Z,24.84
2024-02-22T09:18:32.583Z,24.88
2024-02-22T09:19:32.596Z,24.97
2024-02-22T09:20:32.597Z,25.05
2024-02-22T09:21:32.570Z,25.08
2024-02-22T09:22:33.068Z,25.14
2024-02-22T09:23:32.746Z,25.20
2024-02-22T09:24:32.746Z,25.12
2024-02-22T09:25:32.927Z,25.05
2024-02-22T09:26:32.845Z,24.99
2024-02-22T09:27:32.879Z,25.06
2024-02-22T09:28:33.478Z,25.03
2024-02-22T09:29:33.452Z,24.94
2024-02-22T09:30:33.016Z,24.96
2024-02-22T09:31:33.125Z,24.96
2024-02-22T09:32:33.471Z,24.96
2024-02-22T09:33:33.232Z,24.94
2024-02-22T09:34:33.359Z,24.95
2024-02-22T09:35:33.334Z,24.98
2024-02-22T09:36:33.378Z,24.98
2024-02-22T09:37:33.553Z,24.95
2024-02-22T09:38:33.475Z,24.93
2024-02-22T09:39:33.982Z,24.87
2024-02-22T09:40:33.422Z,24.83
2024-02-22T09:41:33.431Z,24.81
2024-02-22T09:42:33.453Z,24.83
2024-02-22T09:43:33.482Z,24.85
2024-02-22T09:44:33.479Z,24.91
2024-02-22T09:45:33.513Z,25.00
2024-02-22T09:46:33.615Z,25.09
2024-02-22T09:47:34.132Z,25.14
2024-02-22T09:48:33.871Z,25.15
2024-02-22T09:49:33.894Z,25.17
2024-02-22T09:50:33.947Z,25.16
2024-02-22T09:51:33.910Z,25.05
2024-02-22T09:52:33.998Z,24.96
2024-02-22T09:53:34.133Z,24.89
2024-02-22T09:54:34.119Z,24.83
2024-02-22T09:55:34.192Z,24.78
2024-02-22T09:56:34.184Z,24.74
2024-02-22T09:57:34.227Z,24.71
2024-02-22T09:58:34.336Z,24.67
2024-02-22T09:59:34.317Z,24.64
2024-02-22T10:00:34.357Z,24.63
2024-02-22T10:01:34.445Z,24.60
2024-02-22T10:02:34.457Z,24.58
2024-02-22T10:03:34.485Z,24.56
2024-02-22T10:04:34.521Z,24.56
2024-02-22T10:05:34.611Z,24.56
2024-02-22T10:06:34.772Z,24.56
2024-02-22T10:07:34.716Z,24.55
2024-02-22T10:08:34.713Z,24.54
2024-02-22T10:09:34.721Z,24.54
2024-02-22T10:10:34.825Z,24.55
2024-02-22T10:11:35.007Z,24.56
2024-02-22T10:12:36.323Z,24.57
2024-02-22T10:13:35.238Z,24.56
2024-02-22T10:14:35.113Z,24.54
2024-02-22T10:15:35.152Z,24.55
2024-02-22T10:16:35.260Z,24.56
2024-02-22T10:17:35.348Z,24.57
2024-02-22T10:18:35.405Z,24.57
2024-02-22T10:19:35.472Z,24.57
2024-02-22T10:20:35.805Z,24.59
2024-02-22T10:21:35.515Z,24.60
2024-02-22T10:22:35.621Z,24.61
2024-02-22T10:23:35.627Z,24.62
2024-02-22T10:24:35.686Z,24.63
2024-02-22T10:25:35.942Z,24.64
2024-02-22T10:26:35.896Z,24.63
2024-02-22T10:27:35.898Z,24.64
2024-02-22T10:28:35.969Z,24.65
2024-02-22T10:29:35.986Z,24.67
2024-02-22T10:30:36.077Z,24.68
2024-02-22T10:31:36.175Z,24.68
2024-02-22T10:32:36.278Z,24.69
2024-02-22T10:33:36.385Z,24.71
2024-02-22T10:34:36.405Z,24.74
2024-02-22T10:35:36.444Z,24.76
2024-02-22T10:36:36.447Z,24.77
2024-02-22T10:37:36.579Z,24.78
2024-02-22T10:38:36.470Z,24.80
2024-02-22T10:39:36.525Z,24.81
2024-02-22T10:40:36.892Z,24.81
2024-02-22T10:41:36.572Z,24.82
2024-02-22T10:42:37.002Z,24.82
2024-02-22T10:43:36.805Z,24.81
2024-02-22T10:44:36.805Z,24.82
2024-02-22T10:45:36.767Z,24.82
2024-02-22T10:46:36.979Z,24.83
2024-02-22T10:47:37.051Z,24.84
2024-02-22T10:48:37.009Z,24.84
2024-02-22T10:49:36.943Z,24.84
2024-02-22T10:50:37.003Z,24.85
2024-02-22T10:51:37.072Z,24.85
2024-02-22T10:52:37.515Z,24.86
2024-02-22T10:53:37.037Z,24.87
2024-02-22T10:54:37.094Z,24.82
2024-02-22T10:55:37.189Z,24.79
2024-02-22T10:56:37.291Z,24.74
2024-02-22T10:57:37.989Z,24.70
2024-02-22T10:58:37.365Z,24.68
2024-02-22T10:59:37.433Z,24.60
2024-02-22T11:00:37.432Z,24.55
2024-02-22T11:01:37.434Z,24.50
2024-02-22T11:02:37.458Z,24.44
2024-02-22T11:03:37.519Z,24.39
2024-02-22T11:04:37.564Z,24.37
2024-02-22T11:05:37.559Z,24.35
2024-02-22T11:06:37.586Z,24.33
2024-02-22T11:07:37.621Z,24.29
2024-02-22T11:08:37.598Z,24.26
2024-02-22T11:09:37.643Z,24.23
2024-02-22T11:10:37.684Z,24.21
2024-02-22T11:11:37.881Z,24.21
2024-02-22T11:12:37.776Z,24.20
2024-02-22T11:13:38.022Z,24.18
2024-02-22T11:14:37.870Z,24.17
2024-02-22T11:15:37.914Z,24.15
2024-02-22T11:16:38.015Z,24.10
2024-02-22T11:17:38.039Z,24.10
2024-02-22T11:18:38.101Z,24.09
2024-02-22T11:19:38.182Z,24.07
2024-02-22T11:20:38.151Z,24.04
2024-02-22T11:21:38.193Z,24.03
2024-02-22T11:22:38.352Z,24.05
2024-02-22T11:23:39.092Z,24.06
2024-02-22T11:24:38.377Z,24.04
2024-02-22T11:25:38.427Z,24.00
2024-02-22T11:26:38.464Z,23.97
2024-02-22T11:27:38.530Z,23.96
2024-02-22T11:28:38.553Z,23.97
2024-02-22T11:29:38.559Z,23.97
2024-02-22T11:30:38.625Z,23.97
2024-02-22T11:31:38.698Z,23.99
2024-02-22T11:32:38.802Z,24.03
2024-02-22T11:33:39.586Z,24.07
2024-02-22T11:34:38.931Z,24.09
2024-02-22T11:35:38.991Z,24.09
2024-02-22T11:36:38.956Z,24.08
2024-02-22T11:37:39.049Z,24.09
2024-02-22T11:38:39.064Z,24.08
2024-02-22T11:39:39.099Z,24.10
2024-02-22T11:40:39.402Z,24.11
2024-02-22T11:41:39.206Z,24.10
2024-02-22T11:42:39.299Z,24.09
2024-02-22T11:43:39.356Z,24.09
2024-02-22T11:44:39.392Z,24.08
2024-02-22T11:45:39.412Z,24.07
2024-02-22T11:46:39.577Z,24.07
2024-02-22T11:47:39.584Z,24.06
2024-02-22T11:48:39.792Z,24.05
2024-02-22T11:49:39.670Z,24.04
2024-02-22T11:50:39.648Z,24.04
2024-02-22T11:51:39.699Z,24.04
2024-02-22T11:52:40.027Z,24.02
2024-02-22T11:53:40.425Z,24.01
2024-02-22T11:54:39.844Z,23.96
2024-02-22T11:55:39.951Z,23.89
2024-02-22T11:56:39.984Z,23.88
2024-02-22T11:57:40.042Z,23.86
2024-02-22T11:58:40.153Z,23.83
2024-02-22T11:59:40.120Z,23.81
2024-02-22T12:00:40.322Z,23.78
2024-02-22T12:01:40.210Z,23.80
2024-02-22T12:02:40.224Z,23.81
2024-02-22T12:03:40.220Z,23.80
2024-02-22T12:04:40.339Z,23.80
2024-02-22T12:05:40.396Z,23.81
2024-02-22T12:06:40.484Z,23.83
2024-02-22T12:07:40.701Z,23.84
2024-02-22T12:08:40.491Z,23.85
2024-02-22T12:09:40.565Z,23.86
2024-02-22T12:10:40.728Z,23.88
2024-02-22T12:11:40.753Z,23.90
2024-02-22T12:12:40.998Z,23.92
2024-02-22T12:13:40.878Z,23.95
2024-02-22T12:14:40.879Z,24.00
2024-02-22T12:15:40.962Z,24.12
2024-02-22T12:16:41.035Z,24.24
2024-02-22T12:17:41.191Z,24.37
2024-02-22T12:18:41.258Z,24.44
2024-02-22T12:19:41.114Z,24.50
2024-02-22T12:20:41.200Z,24.51
2024-02-22T12:21:41.305Z,24.53
2024-02-22T12:22:41.197Z,24.59
2024-02-22T12:23:41.177Z,24.70
2024-02-22T12:24:41.183Z,24.74
2024-02-22T12:25:41.263Z,24.80
2024-02-22T12:26:41.279Z,24.86
2024-02-22T12:27:41.548Z,24.89
2024-02-22T12:28:41.566Z,24.90
2024-02-22T12:29:41.471Z,24.92
2024-02-22T12:30:41.568Z,24.96
2024-02-22T12:31:41.662Z,24.95
2024-02-22T12:32:41.707Z,24.91
2024-02-22T12:33:42.089Z,24.90
2024-02-22T12:34:41.858Z,24.86
2024-02-22T12:35:41.949Z,24.83
2024-02-22T12:36:41.985Z,24.84
2024-02-22T12:37:42.044Z,24.81
2024-02-22T12:38:41.991Z,24.81
2024-02-22T12:39:42.200Z,24.79
2024-02-22T12:40:42.090Z,24.75
2024-02-22T12:41:42.095Z,24.73
2024-02-22T12:42:42.064Z,24.69
2024-02-22T12:43:42.144Z,24.67
2024-02-22T12:44:42.080Z,24.63
2024-02-22T12:45:42.145Z,24.58
2024-02-22T12:46:42.196Z,24.58
2024-02-22T12:47:42.257Z,24.56
2024-02-22T12:48:42.232Z,24.55
2024-02-22T12:49:42.230Z,24.55
2024-02-22T12:50:42.225Z,24.56
2024-02-22T12:51:42.242Z,24.61
2024-02-22T12:52:42.336Z,24.64
2024-02-22T12:53:42.258Z,24.63